sensor_id;sensor_type;location;lat;lon;timestamp;P1;durP1;ratioP1;P2;durP2;ratioP2
53391;SDS011;41667;51.922;8.850;2023-04-24T00:02:03;0.50;;;0.50;;
53391;SDS011;41667;51.922;8.850;2023-04-24T00:04:28;0.52;;;0.52;;
53391;SDS011;41667;51.922;8.850;2023-04-24T00:06:53;0.40;;;0.40;;
53391;SDS011;41667;51.922;8.850;2023-04-24T00:09:22;0.60;;;0.60;;
53391;SDS011;41667;51.922;8.850;2023-04-24T00:11:47;0.50;;;0.50;;
53391;SDS011;41667;51.922;8.850;2023-04-24T00:14:12;0.50;;;0.50;;
53391;SDS011;41667;51.922;8.850;2023-04-24T00:16:37;0.60;;;0.60;;
53391;SDS011;41667;51.922;8.850;2023-04-24T00:19:02;1.38;;;0.38;;
53391;SDS011;41667;51.922;8.850;2023-04-24T00:21:27;0.63;;;0.60;;
53391;SDS011;41667;51.922;8.850;2023-04-24T00:23:53;3.70;;;0.90;;
53391;SDS011;41667;51.922;8.850;2023-04-24T00:26:18;11.93;;;0.93;;
53391;SDS011;41667;51.922;8.850;2023-04-24T00:28:43;0.77;;;0.55;;
53391;SDS011;41667;51.922;8.850;2023-04-24T00:31:08;0.47;;;0.47;;
53391;SDS011;41667;51.922;8.850;2023-04-24T00:33:33;0.93;;;0.50;;
53391;SDS011;41667;51.922;8.850;2023-04-24T00:35:58;0.50;;;0.50;;
53391;SDS011;41667;51.922;8.850;2023-04-24T00:38:24;1.20;;;0.57;;
53391;SDS011;41667;51.922;8.850;2023-04-24T00:40:49;0.45;;;0.45;;
53391;SDS011;41667;51.922;8.850;2023-04-24T00:43:18;2.00;;;0.60;;
53391;SDS011;41667;51.922;8.850;2023-04-24T00:45:44;0.80;;;0.50;;
53391;SDS011;41667;51.922;8.850;2023-04-24T00:48:09;0.77;;;0.60;;
53391;SDS011;41667;51.922;8.850;2023-04-24T00:50:35;0.50;;;0.50;;
53391;SDS011;41667;51.922;8.850;2023-04-24T00:53:00;0.50;;;0.50;;
53391;SDS011;41667;51.922;8.850;2023-04-24T00:55:25;0.98;;;0.50;;
53391;SDS011;41667;51.922;8.850;2023-04-24T00:57:51;0.60;;;0.60;;
53391;SDS011;41667;51.922;8.850;2023-04-24T01:00:16;0.70;;;0.70;;
53391;SDS011;41667;51.922;8.850;2023-04-24T01:02:43;0.65;;;0.65;;
53391;SDS011;41667;51.922;8.850;2023-04-24T01:05:12;0.82;;;0.82;;
53391;SDS011;41667;51.922;8.850;2023-04-24T01:07:38;0.40;;;0.40;;
53391;SDS011;41667;51.922;8.850;2023-04-24T01:10:04;1.00;;;1.00;;
53391;SDS011;41667;51.922;8.850;2023-04-24T01:12:29;0.40;;;0.40;;
53391;SDS011;41667;51.922;8.850;2023-04-24T01:14:55;2.60;;;0.70;;
53391;SDS011;41667;51.922;8.850;2023-04-24T01:17:21;0.50;;;0.50;;
53391;SDS011;41667;51.922;8.850;2023-04-24T01:19:46;0.47;;;0.47;;
53391;SDS011;41667;51.922;8.850;2023-04-24T01:22:14;0.60;;;0.60;;
53391;SDS011;41667;51.922;8.850;2023-04-24T01:24:40;2.20;;;0.80;;
53391;SDS011;41667;51.922;8.850;2023-04-24T01:27:05;4.18;;;0.47;;
53391;SDS011;41667;51.922;8.850;2023-04-24T01:29:31;0.45;;;0.45;;
53391;SDS011;41667;51.922;8.850;2023-04-24T01:31:56;0.40;;;0.40;;
53391;SDS011;41667;51.922;8.850;2023-04-24T01:34:23;0.50;;;0.50;;
53391;SDS011;41667;51.922;8.850;2023-04-24T01:36:48;0.47;;;0.47;;
53391;SDS011;41667;51.922;8.850;2023-04-24T01:39:13;0.47;;;0.47;;
53391;SDS011;41667;51.922;8.850;2023-04-24T01:41:40;0.55;;;0.55;;
53391;SDS011;41667;51.922;8.850;2023-04-24T01:44:05;0.85;;;0.60;;
53391;SDS011;41667;51.922;8.850;2023-04-24T01:46:30;0.73;;;0.53;;
53391;SDS011;41667;51.922;8.850;2023-04-24T01:48:56;0.63;;;0.63;;
53391;SDS011;41667;51.922;8.850;2023-04-24T01:51:23;0.55;;;0.55;;
53391;SDS011;41667;51.922;8.850;2023-04-24T01:53:48;0.50;;;0.50;;
53391;SDS011;41667;51.922;8.850;2023-04-24T01:56:13;0.40;;;0.40;;
53391;SDS011;41667;51.922;8.850;2023-04-24T01:58:38;1.20;;;0.60;;
53391;SDS011;41667;51.922;8.850;2023-04-24T02:01:05;0.70;;;0.70;;
53391;SDS011;41667;51.922;8.850;2023-04-24T02:03:31;1.02;;;0.95;;
53391;SDS011;41667;51.922;8.850;2023-04-24T02:05:56;0.70;;;0.70;;
53391;SDS011;41667;51.922;8.850;2023-04-24T02:08:21;0.73;;;0.60;;
53391;SDS011;41667;51.922;8.850;2023-04-24T02:10:46;0.60;;;0.60;;
53391;SDS011;41667;51.922;8.850;2023-04-24T02:13:11;0.60;;;0.60;;
53391;SDS011;41667;51.922;8.850;2023-04-24T02:15:36;0.60;;;0.60;;
53391;SDS011;41667;51.922;8.850;2023-04-24T02:18:01;1.30;;;0.98;;
53391;SDS011;41667;51.922;8.850;2023-04-24T02:20:27;3.00;;;1.50;;
53391;SDS011;41667;51.922;8.850;2023-04-24T02:22:52;0.60;;;0.60;;
53391;SDS011;41667;51.922;8.850;2023-04-24T02:25:17;1.73;;;1.52;;
53391;SDS011;41667;51.922;8.850;2023-04-24T02:27:42;0.60;;;0.60;;
53391;SDS011;41667;51.922;8.850;2023-04-24T02:30:07;0.73;;;0.50;;
53391;SDS011;41667;51.922;8.850;2023-04-24T02:32:33;0.50;;;0.50;;
53391;SDS011;41667;51.922;8.850;2023-04-24T02:34:58;0.52;;;0.52;;
53391;SDS011;41667;51.922;8.850;2023-04-24T02:37:24;1.13;;;0.60;;
53391;SDS011;41667;51.922;8.850;2023-04-24T02:39:49;0.50;;;0.50;;
53391;SDS011;41667;51.922;8.850;2023-04-24T02:42:14;1.40;;;0.70;;
53391;SDS011;41667;51.922;8.850;2023-04-24T02:44:40;0.50;;;0.50;;
53391;SDS011;41667;51.922;8.850;2023-04-24T02:47:05;0.90;;;0.70;;
53391;SDS011;41667;51.922;8.850;2023-04-24T02:49:30;0.52;;;0.52;;
53391;SDS011;41667;51.922;8.850;2023-04-24T02:51:56;0.50;;;0.50;;
53391;SDS011;41667;51.922;8.850;2023-04-24T02:54:21;0.60;;;0.60;;
53391;SDS011;41667;51.922;8.850;2023-04-24T02:56:46;0.50;;;0.50;;
53391;SDS011;41667;51.922;8.850;2023-04-24T02:59:11;0.70;;;0.60;;
53391;SDS011;41667;51.922;8.850;2023-04-24T03:01:36;0.47;;;0.47;;
53391;SDS011;41667;51.922;8.850;2023-04-24T03:04:01;0.57;;;0.57;;
53391;SDS011;41667;51.922;8.850;2023-04-24T03:06:26;3.45;;;0.60;;
53391;SDS011;41667;51.922;8.850;2023-04-24T03:08:52;0.93;;;0.60;;
53391;SDS011;41667;51.922;8.850;2023-04-24T03:11:17;1.42;;;0.88;;
53391;SDS011;41667;51.922;8.850;2023-04-24T03:13:42;0.45;;;0.45;;
53391;SDS011;41667;51.922;8.850;2023-04-24T03:16:07;0.60;;;0.60;;
53391;SDS011;41667;51.922;8.850;2023-04-24T03:18:32;1.50;;;0.60;;
53391;SDS011;41667;51.922;8.850;2023-04-24T03:20:57;0.50;;;0.50;;
53391;SDS011;41667;51.922;8.850;2023-04-24T03:23:23;0.43;;;0.43;;
53391;SDS011;41667;51.922;8.850;2023-04-24T03:25:48;0.82;;;0.70;;
53391;SDS011;41667;51.922;8.850;2023-04-24T03:28:13;0.50;;;0.50;;
53391;SDS011;41667;51.922;8.850;2023-04-24T03:30:38;0.63;;;0.60;;
53391;SDS011;41667;51.922;8.850;2023-04-24T03:33:03;0.47;;;0.47;;
53391;SDS011;41667;51.922;8.850;2023-04-24T03:35:28;0.57;;;0.57;;
53391;SDS011;41667;51.922;8.850;2023-04-24T03:37:54;0.68;;;0.68;;
53391;SDS011;41667;51.922;8.850;2023-04-24T03:40:19;0.52;;;0.52;;
53391;SDS011;41667;51.922;8.850;2023-04-24T03:42:44;0.68;;;0.68;;
53391;SDS011;41667;51.922;8.850;2023-04-24T03:45:09;0.50;;;0.50;;
53391;SDS011;41667;51.922;8.850;2023-04-24T03:47:35;0.60;;;0.60;;
53391;SDS011;41667;51.922;8.850;2023-04-24T03:50:00;1.52;;;0.75;;
53391;SDS011;41667;51.922;8.850;2023-04-24T03:52:25;1.40;;;0.75;;
53391;SDS011;41667;51.922;8.850;2023-04-24T03:54:50;0.55;;;0.55;;
53391;SDS011;41667;51.922;8.850;2023-04-24T03:57:15;0.70;;;0.70;;
53391;SDS011;41667;51.922;8.850;2023-04-24T03:59:40;0.90;;;0.90;;
53391;SDS011;41667;51.922;8.850;2023-04-24T04:02:05;0.90;;;0.90;;
53391;SDS011;41667;51.922;8.850;2023-04-24T04:04:31;1.23;;;1.13;;
53391;SDS011;41667;51.922;8.850;2023-04-24T04:06:56;0.70;;;0.70;;
53391;SDS011;41667;51.922;8.850;2023-04-24T04:09:21;1.30;;;1.20;;
53391;SDS011;41667;51.922;8.850;2023-04-24T04:11:46;1.37;;;1.20;;
53391;SDS011;41667;51.922;8.850;2023-04-24T04:14:11;1.20;;;1.20;;
53391;SDS011;41667;51.922;8.850;2023-04-24T04:16:37;1.45;;;1.38;;
53391;SDS011;41667;51.922;8.850;2023-04-24T04:19:02;2.60;;;1.43;;
53391;SDS011;41667;51.922;8.850;2023-04-24T04:21:28;1.42;;;1.33;;
53391;SDS011;41667;51.922;8.850;2023-04-24T04:23:53;1.60;;;1.50;;
53391;SDS011;41667;51.922;8.850;2023-04-24T04:26:18;1.63;;;1.27;;
53391;SDS011;41667;51.922;8.850;2023-04-24T04:28:44;1.65;;;1.55;;
53391;SDS011;41667;51.922;8.850;2023-04-24T04:31:09;6.75;;;2.25;;
53391;SDS011;41667;51.922;8.850;2023-04-24T04:33:34;3.80;;;1.85;;
53391;SDS011;41667;51.922;8.850;2023-04-24T04:36:01;4.22;;;1.77;;
53391;SDS011;41667;51.922;8.850;2023-04-24T04:38:26;1.70;;;1.60;;
53391;SDS011;41667;51.922;8.850;2023-04-24T04:40:54;1.70;;;1.60;;
53391;SDS011;41667;51.922;8.850;2023-04-24T04:43:21;1.50;;;1.40;;
53391;SDS011;41667;51.922;8.850;2023-04-24T04:45:47;2.40;;;1.40;;
53391;SDS011;41667;51.922;8.850;2023-04-24T04:48:13;1.42;;;1.27;;
53391;SDS011;41667;51.922;8.850;2023-04-24T04:50:38;1.88;;;1.73;;
53391;SDS011;41667;51.922;8.850;2023-04-24T04:53:04;1.20;;;1.10;;
53391;SDS011;41667;51.922;8.850;2023-04-24T04:55:29;1.00;;;1.00;;
53391;SDS011;41667;51.922;8.850;2023-04-24T04:57:55;1.48;;;1.38;;
53391;SDS011;41667;51.922;8.850;2023-04-24T05:00:21;1.60;;;1.20;;
53391;SDS011;41667;51.922;8.850;2023-04-24T05:02:46;1.13;;;1.13;;
53391;SDS011;41667;51.922;8.850;2023-04-24T05:05:11;3.95;;;1.48;;
53391;SDS011;41667;51.922;8.850;2023-04-24T05:07:36;2.00;;;1.60;;
53391;SDS011;41667;51.922;8.850;2023-04-24T05:10:01;1.35;;;1.25;;
53391;SDS011;41667;51.922;8.850;2023-04-24T05:12:27;1.27;;;1.20;;
53391;SDS011;41667;51.922;8.850;2023-04-24T05:14:52;1.50;;;1.40;;
53391;SDS011;41667;51.922;8.850;2023-04-24T05:17:17;1.40;;;1.30;;
53391;SDS011;41667;51.922;8.850;2023-04-24T05:19:43;3.92;;;1.35;;
53391;SDS011;41667;51.922;8.850;2023-04-24T05:22:08;2.83;;;2.60;;
53391;SDS011;41667;51.922;8.850;2023-04-24T05:24:34;4.75;;;3.75;;
53391;SDS011;41667;51.922;8.850;2023-04-24T05:26:59;6.97;;;3.65;;
53391;SDS011;41667;51.922;8.850;2023-04-24T05:29:25;6.53;;;4.97;;
53391;SDS011;41667;51.922;8.850;2023-04-24T05:31:51;9.23;;;4.60;;
53391;SDS011;41667;51.922;8.850;2023-04-24T05:34:16;6.97;;;4.40;;
53391;SDS011;41667;51.922;8.850;2023-04-24T05:36:41;7.22;;;5.57;;
53391;SDS011;41667;51.922;8.850;2023-04-24T05:39:07;7.68;;;5.85;;
53391;SDS011;41667;51.922;8.850;2023-04-24T05:41:33;8.32;;;5.38;;
53391;SDS011;41667;51.922;8.850;2023-04-24T05:43:58;6.97;;;5.28;;
53391;SDS011;41667;51.922;8.850;2023-04-24T05:46:23;10.25;;;5.95;;
53391;SDS011;41667;51.922;8.850;2023-04-24T05:48:48;13.70;;;6.17;;
53391;SDS011;41667;51.922;8.850;2023-04-24T05:51:13;9.55;;;6.25;;
53391;SDS011;41667;51.922;8.850;2023-04-24T05:53:38;10.13;;;6.88;;
53391;SDS011;41667;51.922;8.850;2023-04-24T05:56:04;9.25;;;6.40;;
53391;SDS011;41667;51.922;8.850;2023-04-24T05:58:29;11.88;;;7.18;;
53391;SDS011;41667;51.922;8.850;2023-04-24T06:00:54;10.00;;;6.80;;
53391;SDS011;41667;51.922;8.850;2023-04-24T06:03:20;9.80;;;5.88;;
53391;SDS011;41667;51.922;8.850;2023-04-24T06:05:45;9.10;;;7.03;;
53391;SDS011;41667;51.922;8.850;2023-04-24T06:08:10;9.90;;;6.53;;
53391;SDS011;41667;51.922;8.850;2023-04-24T06:10:36;7.32;;;6.43;;
53391;SDS011;41667;51.922;8.850;2023-04-24T06:13:01;9.90;;;5.78;;
53391;SDS011;41667;51.922;8.850;2023-04-24T06:15:29;7.85;;;5.55;;
53391;SDS011;41667;51.922;8.850;2023-04-24T06:17:56;6.68;;;5.10;;
53391;SDS011;41667;51.922;8.850;2023-04-24T06:20:21;6.18;;;5.07;;
53391;SDS011;41667;51.922;8.850;2023-04-24T06:22:46;6.37;;;5.10;;
53391;SDS011;41667;51.922;8.850;2023-04-24T06:25:11;9.27;;;5.68;;
53391;SDS011;41667;51.922;8.850;2023-04-24T06:27:36;8.33;;;5.40;;
53391;SDS011;41667;51.922;8.850;2023-04-24T06:30:02;8.13;;;4.93;;
53391;SDS011;41667;51.922;8.850;2023-04-24T06:32:27;9.73;;;5.47;;
53391;SDS011;41667;51.922;8.850;2023-04-24T06:34:52;8.88;;;5.15;;
53391;SDS011;41667;51.922;8.850;2023-04-24T06:37:18;9.30;;;6.20;;
53391;SDS011;41667;51.922;8.850;2023-04-24T06:39:43;7.95;;;5.10;;
53391;SDS011;41667;51.922;8.850;2023-04-24T06:42:08;7.10;;;5.07;;
53391;SDS011;41667;51.922;8.850;2023-04-24T06:44:34;9.90;;;5.18;;
53391;SDS011;41667;51.922;8.850;2023-04-24T06:47:05;5.05;;;4.55;;
53391;SDS011;41667;51.922;8.850;2023-04-24T06:49:30;8.57;;;5.82;;
53391;SDS011;41667;51.922;8.850;2023-04-24T06:51:55;8.27;;;4.38;;
53391;SDS011;41667;51.922;8.850;2023-04-24T06:54:20;6.07;;;5.03;;
53391;SDS011;41667;51.922;8.850;2023-04-24T06:56:45;12.07;;;6.20;;
53391;SDS011;41667;51.922;8.850;2023-04-24T06:59:12;8.27;;;6.13;;
53391;SDS011;41667;51.922;8.850;2023-04-24T07:01:37;8.70;;;6.13;;
53391;SDS011;41667;51.922;8.850;2023-04-24T07:04:02;8.30;;;5.40;;
53391;SDS011;41667;51.922;8.850;2023-04-24T07:06:28;11.20;;;5.35;;
53391;SDS011;41667;51.922;8.850;2023-04-24T07:08:55;10.02;;;6.22;;
53391;SDS011;41667;51.922;8.850;2023-04-24T07:11:21;9.38;;;6.05;;
53391;SDS011;41667;51.922;8.850;2023-04-24T07:13:47;10.32;;;5.85;;
53391;SDS011;41667;51.922;8.850;2023-04-24T07:16:12;6.50;;;4.78;;
53391;SDS011;41667;51.922;8.850;2023-04-24T07:18:37;7.80;;;4.85;;
53391;SDS011;41667;51.922;8.850;2023-04-24T07:21:04;7.60;;;5.55;;
53391;SDS011;41667;51.922;8.850;2023-04-24T07:23:29;8.30;;;5.13;;
53391;SDS011;41667;51.922;8.850;2023-04-24T07:25:55;11.38;;;5.45;;
53391;SDS011;41667;51.922;8.850;2023-04-24T07:28:20;6.57;;;4.35;;
53391;SDS011;41667;51.922;8.850;2023-04-24T07:30:45;6.43;;;4.15;;
53391;SDS011;41667;51.922;8.850;2023-04-24T07:33:11;5.80;;;5.15;;
53391;SDS011;41667;51.922;8.850;2023-04-24T07:35:38;7.53;;;4.25;;
53391;SDS011;41667;51.922;8.850;2023-04-24T07:38:03;6.47;;;4.60;;
53391;SDS011;41667;51.922;8.850;2023-04-24T07:40:28;7.90;;;5.68;;
53391;SDS011;41667;51.922;8.850;2023-04-24T07:42:53;8.63;;;3.87;;
53391;SDS011;41667;51.922;8.850;2023-04-24T07:45:18;7.55;;;4.20;;
53391;SDS011;41667;51.922;8.850;2023-04-24T07:47:44;4.70;;;4.00;;
53391;SDS011;41667;51.922;8.850;2023-04-24T07:50:10;7.72;;;4.53;;
53391;SDS011;41667;51.922;8.850;2023-04-24T07:52:35;4.93;;;4.43;;
53391;SDS011;41667;51.922;8.850;2023-04-24T07:55:00;6.28;;;4.45;;
53391;SDS011;41667;51.922;8.850;2023-04-24T07:57:26;4.05;;;3.65;;
53391;SDS011;41667;51.922;8.850;2023-04-24T07:59:52;5.13;;;4.10;;
53391;SDS011;41667;51.922;8.850;2023-04-24T08:02:17;4.78;;;4.28;;
53391;SDS011;41667;51.922;8.850;2023-04-24T08:04:42;6.30;;;4.43;;
53391;SDS011;41667;51.922;8.850;2023-04-24T08:07:07;9.55;;;4.13;;
53391;SDS011;41667;51.922;8.850;2023-04-24T08:09:33;4.60;;;3.70;;
53391;SDS011;41667;51.922;8.850;2023-04-24T08:11:58;6.73;;;4.20;;
53391;SDS011;41667;51.922;8.850;2023-04-24T08:14:23;4.27;;;3.77;;
53391;SDS011;41667;51.922;8.850;2023-04-24T08:16:48;4.97;;;4.32;;
53391;SDS011;41667;51.922;8.850;2023-04-24T08:19:13;5.20;;;4.18;;
53391;SDS011;41667;51.922;8.850;2023-04-24T08:21:38;5.80;;;4.15;;
53391;SDS011;41667;51.922;8.850;2023-04-24T08:24:03;4.27;;;3.40;;
53391;SDS011;41667;51.922;8.850;2023-04-24T08:26:31;4.25;;;3.20;;
53391;SDS011;41667;51.922;8.850;2023-04-24T08:28:57;2.63;;;2.42;;
53391;SDS011;41667;51.922;8.850;2023-04-24T08:31:22;3.00;;;2.70;;
53391;SDS011;41667;51.922;8.850;2023-04-24T08:33:47;4.25;;;3.10;;
53391;SDS011;41667;51.922;8.850;2023-04-24T08:36:12;2.70;;;2.50;;
53391;SDS011;41667;51.922;8.850;2023-04-24T08:38:38;3.35;;;2.83;;
53391;SDS011;41667;51.922;8.850;2023-04-24T08:41:03;3.03;;;2.67;;
53391;SDS011;41667;51.922;8.850;2023-04-24T08:43:29;2.50;;;2.10;;
53391;SDS011;41667;51.922;8.850;2023-04-24T08:45:55;2.90;;;2.70;;
53391;SDS011;41667;51.922;8.850;2023-04-24T08:48:21;3.30;;;3.00;;
53391;SDS011;41667;51.922;8.850;2023-04-24T08:50:47;2.90;;;2.70;;
53391;SDS011;41667;51.922;8.850;2023-04-24T08:53:13;3.63;;;2.78;;
53391;SDS011;41667;51.922;8.850;2023-04-24T08:55:39;2.42;;;2.22;;
53391;SDS011;41667;51.922;8.850;2023-04-24T08:58:06;2.97;;;2.67;;
53391;SDS011;41667;51.922;8.850;2023-04-24T09:00:31;4.25;;;3.08;;
53391;SDS011;41667;51.922;8.850;2023-04-24T09:02:56;3.27;;;2.37;;
53391;SDS011;41667;51.922;8.850;2023-04-24T09:05:22;4.20;;;3.10;;
53391;SDS011;41667;51.922;8.850;2023-04-24T09:07:57;5.05;;;3.33;;
53391;SDS011;41667;51.922;8.850;2023-04-24T09:10:24;6.30;;;2.75;;
53391;SDS011;41667;51.922;8.850;2023-04-24T09:12:50;3.50;;;2.70;;
53391;SDS011;41667;51.922;8.850;2023-04-24T09:15:15;3.47;;;2.80;;
53391;SDS011;41667;51.922;8.850;2023-04-24T09:17:40;3.20;;;2.90;;
53391;SDS011;41667;51.922;8.850;2023-04-24T09:20:06;2.50;;;2.30;;
53391;SDS011;41667;51.922;8.850;2023-04-24T09:22:31;2.45;;;2.25;;
53391;SDS011;41667;51.922;8.850;2023-04-24T09:25:06;2.40;;;2.20;;
53391;SDS011;41667;51.922;8.850;2023-04-24T09:27:32;3.78;;;2.53;;
53391;SDS011;41667;51.922;8.850;2023-04-24T09:29:57;2.33;;;2.17;;
53391;SDS011;41667;51.922;8.850;2023-04-24T09:32:23;2.55;;;2.35;;
53391;SDS011;41667;51.922;8.850;2023-04-24T09:35:04;4.15;;;2.10;;
53391;SDS011;41667;51.922;8.850;2023-04-24T09:37:29;2.17;;;1.98;;
53391;SDS011;41667;51.922;8.850;2023-04-24T09:40:07;2.03;;;1.75;;
53391;SDS011;41667;51.922;8.850;2023-04-24T09:42:33;1.85;;;1.67;;
53391;SDS011;41667;51.922;8.850;2023-04-24T09:44:58;1.80;;;1.65;;
53391;SDS011;41667;51.922;8.850;2023-04-24T09:47:23;2.13;;;1.73;;
53391;SDS011;41667;51.922;8.850;2023-04-24T09:49:48;2.28;;;2.08;;
53391;SDS011;41667;51.922;8.850;2023-04-24T09:52:14;1.50;;;1.40;;
53391;SDS011;41667;51.922;8.850;2023-04-24T09:54:40;1.85;;;1.75;;
53391;SDS011;41667;51.922;8.850;2023-04-24T09:57:07;1.77;;;1.57;;
53391;SDS011;41667;51.922;8.850;2023-04-24T09:59:32;2.30;;;1.50;;
53391;SDS011;41667;51.922;8.850;2023-04-24T10:01:59;1.57;;;1.50;;
53391;SDS011;41667;51.922;8.850;2023-04-24T10:04:25;3.05;;;1.52;;
53391;SDS011;41667;51.922;8.850;2023-04-24T10:06:51;1.40;;;1.30;;
53391;SDS011;41667;51.922;8.850;2023-04-24T10:09:17;1.55;;;1.45;;
53391;SDS011;41667;51.922;8.850;2023-04-24T10:11:43;3.92;;;0.90;;
53391;SDS011;41667;51.922;8.850;2023-04-24T10:14:12;0.80;;;0.80;;
53391;SDS011;41667;51.922;8.850;2023-04-24T10:16:37;0.80;;;0.80;;
53391;SDS011;41667;51.922;8.850;2023-04-24T10:19:03;0.80;;;0.80;;
53391;SDS011;41667;51.922;8.850;2023-04-24T10:21:28;1.35;;;0.82;;
53391;SDS011;41667;51.922;8.850;2023-04-24T10:23:53;0.70;;;0.70;;
53391;SDS011;41667;51.922;8.850;2023-04-24T10:26:18;0.77;;;0.77;;
53391;SDS011;41667;51.922;8.850;2023-04-24T10:28:47;0.80;;;0.80;;
53391;SDS011;41667;51.922;8.850;2023-04-24T10:31:13;0.70;;;0.70;;
53391;SDS011;41667;51.922;8.850;2023-04-24T10:33:38;0.70;;;0.70;;
53391;SDS011;41667;51.922;8.850;2023-04-24T10:36:06;0.40;;;0.40;;
53391;SDS011;41667;51.922;8.850;2023-04-24T10:38:31;0.50;;;0.50;;
53391;SDS011;41667;51.922;8.850;2023-04-24T10:40:57;0.98;;;0.98;;
53391;SDS011;41667;51.922;8.850;2023-04-24T10:43:22;2.65;;;0.80;;
53391;SDS011;41667;51.922;8.850;2023-04-24T10:46:04;0.70;;;0.70;;
53391;SDS011;41667;51.922;8.850;2023-04-24T10:48:30;0.80;;;0.80;;
53391;SDS011;41667;51.922;8.850;2023-04-24T10:50:55;0.60;;;0.60;;
53391;SDS011;41667;51.922;8.850;2023-04-24T10:53:21;0.50;;;0.50;;
53391;SDS011;41667;51.922;8.850;2023-04-24T10:56:12;0.60;;;0.60;;
53391;SDS011;41667;51.922;8.850;2023-04-24T10:58:42;0.73;;;0.73;;
53391;SDS011;41667;51.922;8.850;2023-04-24T11:01:23;0.60;;;0.60;;
53391;SDS011;41667;51.922;8.850;2023-04-24T11:03:50;0.73;;;0.73;;
53391;SDS011;41667;51.922;8.850;2023-04-24T11:06:18;0.60;;;0.60;;
53391;SDS011;41667;51.922;8.850;2023-04-24T11:08:53;0.60;;;0.60;;
53391;SDS011;41667;51.922;8.850;2023-04-24T11:11:23;0.82;;;0.82;;
53391;SDS011;41667;51.922;8.850;2023-04-24T11:18:50;1.00;;;1.00;;
53391;SDS011;41667;51.922;8.850;2023-04-24T11:21:18;0.95;;;0.95;;
53391;SDS011;41667;51.922;8.850;2023-04-24T11:23:44;0.73;;;0.73;;
53391;SDS011;41667;51.922;8.850;2023-04-24T11:26:10;0.70;;;0.70;;
53391;SDS011;41667;51.922;8.850;2023-04-24T11:28:36;0.80;;;0.80;;
53391;SDS011;41667;51.922;8.850;2023-04-24T11:33:45;1.02;;;0.95;;
53391;SDS011;41667;51.922;8.850;2023-04-24T11:36:11;1.10;;;1.10;;
53391;SDS011;41667;51.922;8.850;2023-04-24T11:38:36;1.17;;;1.17;;
53391;SDS011;41667;51.922;8.850;2023-04-24T11:41:01;1.63;;;1.53;;
53391;SDS011;41667;51.922;8.850;2023-04-24T11:43:28;1.38;;;1.27;;
53391;SDS011;41667;51.922;8.850;2023-04-24T11:45:55;2.05;;;1.10;;
53391;SDS011;41667;51.922;8.850;2023-04-24T11:48:24;1.70;;;1.60;;
53391;SDS011;41667;51.922;8.850;2023-04-24T11:50:49;1.60;;;1.60;;
53391;SDS011;41667;51.922;8.850;2023-04-24T11:53:14;1.95;;;1.52;;
53391;SDS011;41667;51.922;8.850;2023-04-24T11:55:39;1.85;;;1.75;;
53391;SDS011;41667;51.922;8.850;2023-04-24T11:58:05;1.70;;;1.60;;
53391;SDS011;41667;51.922;8.850;2023-04-24T12:00:31;1.77;;;1.67;;
53391;SDS011;41667;51.922;8.850;2023-04-24T12:07:59;1.83;;;1.73;;
53391;SDS011;41667;51.922;8.850;2023-04-24T12:10:25;1.85;;;1.75;;
53391;SDS011;41667;51.922;8.850;2023-04-24T12:12:50;1.67;;;1.58;;
53391;SDS011;41667;51.922;8.850;2023-04-24T12:15:17;1.67;;;1.58;;
53391;SDS011;41667;51.922;8.850;2023-04-24T12:17:42;1.60;;;1.50;;
53391;SDS011;41667;51.922;8.850;2023-04-24T12:20:08;2.40;;;2.20;;
53391;SDS011;41667;51.922;8.850;2023-04-24T12:25:09;2.50;;;2.30;;
53391;SDS011;41667;51.922;8.850;2023-04-24T12:27:35;2.10;;;2.00;;
53391;SDS011;41667;51.922;8.850;2023-04-24T12:30:00;1.80;;;1.70;;
53391;SDS011;41667;51.922;8.850;2023-04-24T12:32:26;1.90;;;1.80;;
53391;SDS011;41667;51.922;8.850;2023-04-24T12:34:52;2.13;;;1.93;;
53391;SDS011;41667;51.922;8.850;2023-04-24T12:37:17;3.15;;;1.95;;
53391;SDS011;41667;51.922;8.850;2023-04-24T12:39:58;1.85;;;1.58;;
53391;SDS011;41667;51.922;8.850;2023-04-24T12:42:27;1.58;;;1.42;;
53391;SDS011;41667;51.922;8.850;2023-04-24T12:44:56;1.60;;;1.30;;
53391;SDS011;41667;51.922;8.850;2023-04-24T12:47:21;1.30;;;1.23;;
53391;SDS011;41667;51.922;8.850;2023-04-24T12:49:46;1.80;;;1.67;;
53391;SDS011;41667;51.922;8.850;2023-04-24T12:52:11;1.92;;;1.83;;
53391;SDS011;41667;51.922;8.850;2023-04-24T12:54:36;2.38;;;1.90;;
53391;SDS011;41667;51.922;8.850;2023-04-24T12:57:01;4.05;;;2.25;;
53391;SDS011;41667;51.922;8.850;2023-04-24T12:59:26;4.07;;;2.30;;
53391;SDS011;41667;51.922;8.850;2023-04-24T13:01:52;2.63;;;2.10;;
53391;SDS011;41667;51.922;8.850;2023-04-24T13:04:17;3.20;;;2.90;;
53391;SDS011;41667;51.922;8.850;2023-04-24T13:06:42;3.17;;;2.50;;
53391;SDS011;41667;51.922;8.850;2023-04-24T13:09:07;4.60;;;2.70;;
53391;SDS011;41667;51.922;8.850;2023-04-24T13:11:32;3.45;;;3.15;;
53391;SDS011;41667;51.922;8.850;2023-04-24T13:13:58;4.70;;;3.47;;
53391;SDS011;41667;51.922;8.850;2023-04-24T13:16:23;3.70;;;3.30;;
53391;SDS011;41667;51.922;8.850;2023-04-24T13:18:48;3.93;;;2.70;;
53391;SDS011;41667;51.922;8.850;2023-04-24T13:21:13;5.22;;;3.22;;
53391;SDS011;41667;51.922;8.850;2023-04-24T13:23:38;4.33;;;3.30;;
53391;SDS011;41667;51.922;8.850;2023-04-24T13:26:03;4.43;;;3.03;;
53391;SDS011;41667;51.922;8.850;2023-04-24T13:28:28;3.50;;;2.17;;
53391;SDS011;41667;51.922;8.850;2023-04-24T13:30:56;4.28;;;2.42;;
53391;SDS011;41667;51.922;8.850;2023-04-24T13:33:21;2.70;;;2.40;;
53391;SDS011;41667;51.922;8.850;2023-04-24T13:35:46;3.73;;;2.17;;
53391;SDS011;41667;51.922;8.850;2023-04-24T13:38:11;5.03;;;2.88;;
53391;SDS011;41667;51.922;8.850;2023-04-24T13:40:36;4.95;;;3.00;;
53391;SDS011;41667;51.922;8.850;2023-04-24T13:43:02;3.67;;;3.03;;
53391;SDS011;41667;51.922;8.850;2023-04-24T13:45:27;4.75;;;3.83;;
53391;SDS011;41667;51.922;8.850;2023-04-24T13:47:52;6.15;;;3.65;;
53391;SDS011;41667;51.922;8.850;2023-04-24T13:50:18;4.15;;;3.40;;
53391;SDS011;41667;51.922;8.850;2023-04-24T13:52:43;12.07;;;5.25;;
53391;SDS011;41667;51.922;8.850;2023-04-24T13:55:09;15.38;;;4.95;;
53391;SDS011;41667;51.922;8.850;2023-04-24T13:57:34;6.65;;;4.32;;
53391;SDS011;41667;51.922;8.850;2023-04-24T13:59:59;13.82;;;5.22;;
53391;SDS011;41667;51.922;8.850;2023-04-24T14:02:26;7.78;;;4.50;;
53391;SDS011;41667;51.922;8.850;2023-04-24T14:04:51;10.80;;;5.90;;
53391;SDS011;41667;51.922;8.850;2023-04-24T14:07:17;10.23;;;5.45;;
53391;SDS011;41667;51.922;8.850;2023-04-24T14:09:42;12.27;;;5.03;;
53391;SDS011;41667;51.922;8.850;2023-04-24T14:12:07;8.93;;;5.78;;
53391;SDS011;41667;51.922;8.850;2023-04-24T14:14:32;12.55;;;6.65;;
53391;SDS011;41667;51.922;8.850;2023-04-24T14:16:57;13.25;;;6.10;;
53391;SDS011;41667;51.922;8.850;2023-04-24T14:19:23;11.65;;;6.95;;
53391;SDS011;41667;51.922;8.850;2023-04-24T14:21:48;16.05;;;6.85;;
53391;SDS011;41667;51.922;8.850;2023-04-24T14:24:13;15.00;;;7.15;;
53391;SDS011;41667;51.922;8.850;2023-04-24T14:26:39;12.68;;;6.20;;
53391;SDS011;41667;51.922;8.850;2023-04-24T14:29:04;10.73;;;6.30;;
53391;SDS011;41667;51.922;8.850;2023-04-24T14:31:29;10.65;;;5.82;;
53391;SDS011;41667;51.922;8.850;2023-04-24T14:33:55;9.60;;;6.53;;
53391;SDS011;41667;51.922;8.850;2023-04-24T14:36:20;17.65;;;6.97;;
53391;SDS011;41667;51.922;8.850;2023-04-24T14:38:45;8.05;;;5.80;;
53391;SDS011;41667;51.922;8.850;2023-04-24T14:41:10;12.75;;;7.53;;
53391;SDS011;41667;51.922;8.850;2023-04-24T14:43:36;15.38;;;6.13;;
53391;SDS011;41667;51.922;8.850;2023-04-24T14:46:02;11.70;;;5.80;;
53391;SDS011;41667;51.922;8.850;2023-04-24T14:48:27;6.20;;;5.47;;
53391;SDS011;41667;51.922;8.850;2023-04-24T14:50:52;12.35;;;5.50;;
53391;SDS011;41667;51.922;8.850;2023-04-24T14:53:18;9.02;;;4.53;;